Аэропорт: Шпаковское. Ставрополь

ICAO: URMT

METAR:
2018/11/19 10:00
URMT 191000Z 10004MPS 3000 BR FEW002 05/04 Q1023 R07/150060 NOSIG RMK QBB080 OBST OBSC QFE727
METAR:
2018/10/17 18:00
TAF URMT 171700Z 1718/1803 08005G10MPS 9999 SCT020 
      TEMPO 1718/1721 3100 BR SCT011 BKN020 
     FM172100 10004G09MPS 3100 BR SCT011 BKN020 
      TEMPO 1721/1803 0300 FG BKN002 BKN020